Time;durP1;ratioP1;P1;durP2;ratioP2;P2;SDS_P1;SDS_P2;PMS_P1;PMS_P2;Temp;Humidity;BMP_temperature;BMP_pressure;BME280_temperature;BME280_humidity;BME280_pressure;Samples;Min_cycle;Max_cycle;Signal;HPM_P1;HPM_P2
2022/11/19 15:32:55;;;;;;;11.60;7.70;;;2.50;1.00;;;;;;5070485;23;20489;-57
2022/11/19 15:35:57;;;;;;;10.50;7.27;;;2.30;1.00;;;;;;4967186;28;20427;-55
2022/11/19 15:38:23;;;;;;;11.83;8.33;;;;;;;;;;4972743;28;20774;-54
2022/11/19 15:40:54;;;;;;;11.13;7.50;;;2.30;1.00;;;;;;4969537;28;20443;-58
2022/11/19 15:43:47;;;;;;;10.40;7.87;;;2.30;1.00;;;;;;4972555;28;20856;-57
2022/11/19 15:46:34;;;;;;;9.70;6.37;;;2.30;1.00;;;;;;4972399;28;20481;-58
2022/11/19 15:49:15;;;;;;;8.63;6.90;;;2.20;1.00;;;;;;4971487;28;20458;-57
2022/11/19 15:51:53;;;;;;;9.10;6.10;;;2.20;1.00;;;;;;4971403;28;20431;-58
2022/11/19 15:54:24;;;;;;;9.03;6.70;;;2.20;1.00;;;;;;4968443;28;20568;-56
2022/11/19 15:56:50;;;;;;;8.73;6.53;;;2.20;1.00;;;;;;4972552;28;20434;-55
2022/11/19 15:59:18;;;;;;;7.80;5.80;;;2.10;1.00;;;;;;4970412;28;20500;-54
2022/11/19 16:01:54;;;;;;;11.40;6.50;;;2.00;1.00;;;;;;4972193;28;20201;-54
2022/11/19 16:04:20;;;;;;;9.80;7.30;;;;;;;;;;4971170;28;20831;-53
2022/11/19 16:06:49;;;;;;;11.43;8.17;;;2.00;1.00;;;;;;4972462;28;20851;-54
2022/11/19 16:09:23;;;;;;;14.33;8.90;;;1.90;1.00;;;;;;4970945;28;20826;-55
2022/11/19 16:17:36;;;;;;;14.60;9.33;;;1.80;1.00;;;;;;4968915;28;20818;-54
2022/11/19 16:20:18;;;;;;;12.80;9.00;;;1.80;1.00;;;;;;4971760;28;20566;-54
2022/11/19 16:22:49;;;;;;;12.43;8.10;;;1.70;1.00;;;;;;4969894;28;20578;-53
2022/11/19 16:25:38;;;;;;;12.23;8.23;;;1.80;1.00;;;;;;4972148;28;20415;-54
2022/11/19 16:28:11;;;;;;;10.87;7.57;;;1.70;1.00;;;;;;4968899;28;20614;-54
2022/11/19 16:31:01;;;;;;;13.33;8.20;;;3.80;1.00;;;;;;4971662;28;21147;-53
2022/11/19 16:33:28;;;;;;;12.57;8.93;;;1.70;1.00;;;;;;4962112;28;20989;-54
2022/11/19 16:36:18;;;;;;;9.43;8.00;;;1.70;1.00;;;;;;4969616;28;20798;-54
2022/11/19 16:38:54;;;;;;;11.67;8.97;;;1.70;1.00;;;;;;4970572;28;20911;-55
2022/11/19 16:44:16;;;;;;;12.20;7.90;;;1.60;1.00;;;;;;4971358;28;20444;-54
2022/11/19 16:46:42;;;;;;;11.17;8.27;;;1.60;1.00;;;;;;4971432;28;20445;-54
2022/11/19 16:49:28;;;;;;;12.87;8.80;;;1.50;1.00;;;;;;4965527;28;21016;-53
2022/11/19 16:51:55;;;;;;;15.50;7.60;;;1.50;1.00;;;;;;4970136;28;20480;-53
2022/11/19 16:54:45;;;;;;;9.50;7.70;;;1.60;1.00;;;;;;4971268;28;20484;-53
2022/11/19 16:57:13;;;;;;;10.13;7.20;;;1.50;1.00;;;;;;4970496;28;20454;-55
2022/11/19 16:59:39;;;;;;;8.47;6.97;;;4.60;1.00;;;;;;4969827;28;20448;-54
2022/11/19 17:02:13;;;;;;;9.30;7.20;;;1.40;1.00;;;;;;4967899;28;20503;-56
2022/11/19 17:04:48;;;;;;;8.87;7.30;;;1.40;1.00;;;;;;4971010;28;20224;-55
2022/11/19 17:07:22;;;;;;;11.53;8.57;;;1.30;1.00;;;;;;4971223;28;20447;-55
2022/11/19 17:09:48;;;;;;;16.77;9.47;;;;;;;;;;4969135;28;20442;-54
2022/11/19 17:12:21;;;;;;;11.23;8.40;;;1.40;1.00;;;;;;4968180;28;20570;-56
2022/11/19 17:14:58;;;;;;;14.17;9.70;;;1.30;1.00;;;;;;4968941;28;20828;-54
2022/11/19 17:17:40;;;;;;;13.47;10.40;;;1.30;1.00;;;;;;4969239;28;20456;-54
2022/11/19 17:20:28;;;;;;;17.17;11.53;;;1.20;1.00;;;;;;4968872;28;21025;-55
2022/11/19 17:22:55;;;;;;;14.70;10.50;;;1.20;1.00;;;;;;4968984;28;20445;-55
2022/11/19 17:25:21;;;;;;;13.17;10.40;;;1.20;1.00;;;;;;4968329;28;20472;-55
2022/11/19 17:27:56;;;;;;;17.60;11.83;;;1.10;1.00;;;;;;4969460;28;20445;-55
2022/11/19 17:30:29;;;;;;;24.13;12.50;;;1.10;1.00;;;;;;4970283;28;20551;-55
2022/11/19 17:33:03;;;;;;;15.47;12.63;;;1.10;1.00;;;;;;4969353;28;20513;-55
2022/11/19 17:35:36;;;;;;;25.13;14.30;;;1.10;1.00;;;;;;4968655;28;20460;-54
2022/11/19 17:38:26;;;;;;;20.17;13.77;;;1.10;1.00;;;;;;4969288;28;20457;-54
2022/11/19 17:40:57;;;;;;;19.00;12.87;;;1.00;1.00;;;;;;4968961;28;20498;-54
2022/11/19 17:46:08;;;;;;;16.73;13.80;;;1.00;1.00;;;;;;4965731;28;21025;-53
2022/11/19 17:48:34;;;;;;;20.40;13.23;;;1.00;1.00;;;;;;4970085;28;20451;-55
2022/11/19 17:51:00;;;;;;;23.23;14.97;;;1.00;1.00;;;;;;4969971;28;22504;-54
2022/11/19 17:53:25;;;;;;;18.77;13.00;;;0.90;1.00;;;;;;4967228;28;20464;-55
2022/11/19 17:55:54;;;;;;;20.00;13.33;;;0.90;1.00;;;;;;4969434;28;20244;-56
2022/11/19 17:58:20;;;;;;;22.27;13.17;;;;;;;;;;4969243;28;20623;-56
2022/11/19 18:00:46;;;;;;;24.00;16.30;;;;;;;;;;4970120;28;20437;-56
2022/11/19 18:03:12;;;;;;;18.10;12.50;;;0.90;1.00;;;;;;4967395;28;20515;-53
2022/11/19 18:05:44;;;;;;;29.10;14.90;;;0.80;1.00;;;;;;4970682;28;20452;-56
2022/11/19 18:08:10;;;;;;;26.57;15.60;;;0.90;1.00;;;;;;4968782;28;20450;-54
2022/11/19 18:10:35;;;;;;;28.10;17.03;;;0.90;1.00;;;;;;4968614;28;20508;-55
2022/11/19 18:13:01;;;;;;;27.60;16.00;;;0.90;1.00;;;;;;4968929;28;20664;-53
2022/11/19 18:15:26;;;;;;;31.10;16.97;;;0.90;1.00;;;;;;4969183;28;20208;-55
2022/11/19 18:17:53;;;;;;;21.90;14.90;;;;;;;;;;4971273;28;20201;-54
2022/11/19 18:20:19;;;;;;;24.57;15.27;;;0.90;1.00;;;;;;4973483;28;20275;-56
2022/11/19 18:22:44;;;;;;;27.17;15.03;;;0.80;1.00;;;;;;4973530;28;20453;-54
2022/11/19 18:25:16;;;;;;;21.47;14.80;;;0.80;1.00;;;;;;4972394;28;22301;-53
2022/11/19 18:27:43;;;;;;;23.53;16.13;;;0.80;1.00;;;;;;4973297;28;20217;-54
2022/11/19 18:30:09;;;;;;;23.37;16.03;;;0.80;1.00;;;;;;4973873;28;20440;-54
2022/11/19 18:32:35;;;;;;;23.90;16.17;;;0.80;1.00;;;;;;4969847;28;20476;-54
2022/11/19 18:35:01;;;;;;;24.87;16.43;;;;;;;;;;4971185;28;20476;-53
2022/11/19 18:37:28;;;;;;;23.63;16.40;;;0.80;1.00;;;;;;4970296;28;20587;-57
2022/11/19 18:39:53;;;;;;;22.83;16.00;;;0.70;1.00;;;;;;4973257;28;20452;-56
2022/11/19 18:42:19;;;;;;;19.67;14.80;;;0.70;1.00;;;;;;4971683;28;20452;-55
2022/11/19 18:44:45;;;;;;;26.47;17.53;;;0.80;1.00;;;;;;4972567;28;20190;-56
2022/11/19 18:47:13;;;;;;;21.37;15.03;;;0.80;1.00;;;;;;4970469;28;20766;-55
2022/11/19 18:49:39;;;;;;;23.70;15.97;;;;;;;;;;4971067;28;20179;-56
2022/11/19 18:52:07;;;;;;;22.60;15.40;;;0.80;1.00;;;;;;4973432;28;20867;-54
2022/11/19 18:54:33;;;;;;;21.60;14.23;;;;;;;;;;4970689;28;20472;-55
2022/11/19 18:56:59;;;;;;;26.40;16.10;;;0.80;1.00;;;;;;4969626;28;20477;-57
2022/11/19 18:59:25;;;;;;;20.67;15.13;;;;;;;;;;4968786;28;20500;-55
2022/11/19 19:01:54;;;;;;;20.30;15.50;;;0.70;1.00;;;;;;4972780;28;20206;-54
2022/11/19 19:04:20;;;;;;;23.80;16.67;;;0.60;1.00;;;;;;4970021;28;20518;-55
2022/11/19 19:06:46;;;;;;;21.53;14.93;;;0.60;1.00;;;;;;4972758;28;20834;-56
2022/11/19 19:09:17;;;;;;;20.40;14.43;;;;;;;;;;4970262;28;20538;-55
2022/11/19 19:14:28;;;;;;;24.50;15.70;;;0.60;1.00;;;;;;4971501;28;20538;-54
2022/11/19 19:16:53;;;;;;;25.30;17.20;;;0.60;1.00;;;;;;4969123;28;20457;-53
2022/11/19 19:19:19;;;;;;;22.77;14.90;;;0.50;1.00;;;;;;4973033;28;20185;-54
2022/11/19 19:21:45;;;;;;;24.03;16.87;;;0.50;1.00;;;;;;4969668;28;20209;-54
2022/11/19 19:24:11;;;;;;;23.47;16.23;;;0.50;1.00;;;;;;4969907;28;20247;-55
2022/11/19 19:26:37;;;;;;;22.67;15.17;;;0.50;1.00;;;;;;4972173;28;20492;-56
2022/11/19 19:29:04;;;;;;;21.53;15.53;;;2.80;1.00;;;;;;4972363;28;20972;-55
2022/11/19 19:31:30;;;;;;;21.67;16.20;;;;;;;;;;4967481;28;20244;-56
2022/11/19 19:33:56;;;;;;;25.90;15.40;;;0.40;1.00;;;;;;4971474;28;20475;-58
2022/11/19 19:36:22;;;;;;;25.50;16.97;;;;;;;;;;4969518;28;20907;-56
2022/11/19 19:38:48;;;;;;;23.23;14.40;;;0.40;1.00;;;;;;4970414;28;20633;-53
2022/11/19 19:41:25;;;;;;;26.60;16.07;;;0.40;1.00;;;;;;4969973;28;20443;-55
2022/11/19 19:43:51;;;;;;;26.23;16.47;;;0.30;1.00;;;;;;4972585;28;20196;-56
2022/11/19 19:46:20;;;;;;;26.07;15.97;;;0.30;1.00;;;;;;4970170;28;20489;-55
2022/11/19 19:48:50;;;;;;;27.77;18.23;;;0.40;1.00;;;;;;4970363;28;20452;-54
2022/11/19 19:51:17;;;;;;;27.87;18.00;;;;;;;;;;4972279;28;20451;-57
2022/11/19 19:53:43;;;;;;;23.67;16.30;;;0.20;1.00;;;;;;4966243;28;20455;-55
2022/11/19 19:56:14;;;;;;;27.13;16.67;;;0.30;1.00;;;;;;4969968;28;20456;-57
2022/11/19 19:58:42;;;;;;;23.90;16.37;;;0.20;1.00;;;;;;4971215;28;20186;-55
2022/11/19 20:01:17;;;;;;;23.23;15.17;;;0.30;1.00;;;;;;4969402;28;20488;-56
2022/11/19 20:03:43;;;;;;;23.17;15.90;;;0.30;1.00;;;;;;4971543;28;20456;-54
2022/11/19 20:06:12;;;;;;;28.77;18.03;;;0.20;1.00;;;;;;4972295;28;20460;-54
2022/11/19 20:08:39;;;;;;;24.43;17.80;;;0.30;1.00;;;;;;4970274;28;20460;-53
2022/11/19 20:11:11;;;;;;;28.97;18.10;;;0.20;1.00;;;;;;4969682;28;20781;-56
2022/11/19 20:13:38;;;;;;;22.80;16.43;;;0.20;1.00;;;;;;4969140;28;20755;-55
2022/11/19 20:16:08;;;;;;;27.07;17.30;;;0.20;1.00;;;;;;4967415;28;21103;-54
2022/11/19 20:18:35;;;;;;;28.00;17.80;;;0.20;1.00;;;;;;4969095;28;20441;-54
2022/11/19 20:21:02;;;;;;;24.30;16.13;;;0.20;1.00;;;;;;4972045;28;20441;-55
2022/11/19 20:23:28;;;;;;;30.90;19.47;;;0.20;1.00;;;;;;4968528;28;20457;-56
2022/11/19 20:26:06;;;;;;;26.53;17.17;;;0.10;1.00;;;;;;4969359;28;20466;-55
2022/11/19 20:28:32;;;;;;;34.43;18.70;;;0.10;1.00;;;;;;4968229;28;20480;-56
2022/11/19 20:31:02;;;;;;;26.57;17.30;;;0.00;1.00;;;;;;4970719;28;20475;-55
2022/11/19 20:33:27;;;;;;;21.43;16.90;;;0.10;1.00;;;;;;4969329;28;20473;-55
2022/11/19 20:35:53;;;;;;;26.70;17.50;;;0.10;1.00;;;;;;4970908;28;20869;-54
2022/11/19 20:38:19;;;;;;;26.03;16.87;;;;;;;;;;4971040;28;20190;-54
2022/11/19 20:40:59;;;;;;;27.00;18.20;;;0.10;1.00;;;;;;4970000;28;20698;-54
2022/11/19 20:46:13;;;;;;;24.83;16.60;;;0.00;1.00;;;;;;4967612;28;20508;-54
2022/11/19 20:48:39;;;;;;;26.30;16.10;;;;;;;;;;4969369;28;20882;-54
2022/11/19 20:51:06;;;;;;;28.50;16.53;;;;;;;;;;4970936;28;20551;-53
2022/11/19 20:53:32;;;;;;;23.27;14.10;;;0.00;1.00;;;;;;4968515;28;20584;-55
2022/11/19 20:55:57;;;;;;;25.17;16.13;;;0.00;1.00;;;;;;4968706;28;20619;-56
2022/11/19 20:58:23;;;;;;;22.57;15.07;;;-0.10;1.00;;;;;;4969186;28;20448;-55
2022/11/19 21:00:48;;;;;;;25.43;16.00;;;-0.10;1.00;;;;;;4970301;28;20193;-53
2022/11/19 21:03:14;;;;;;;25.40;16.37;;;;;;;;;;4969704;28;20678;-54
2022/11/19 21:05:40;;;;;;;25.23;15.70;;;-0.10;1.00;;;;;;4965705;28;20632;-54
2022/11/19 21:08:06;;;;;;;23.50;16.43;;;-0.10;1.00;;;;;;4968283;28;20463;-52
2022/11/19 21:10:32;;;;;;;21.10;15.20;;;;;;;;;;4967892;28;20192;-54
2022/11/19 21:13:01;;;;;;;22.00;15.47;;;;;;;;;;4968265;28;20209;-53
2022/11/19 21:15:34;;;;;;;23.07;15.10;;;-0.10;1.00;;;;;;4969494;28;21418;-53
2022/11/19 21:18:01;;;;;;;23.80;16.53;;;;;;;;;;4968741;28;20998;-52
2022/11/19 21:20:26;;;;;;;25.30;15.10;;;-0.20;1.00;;;;;;4969748;28;20454;-54
2022/11/19 21:22:53;;;;;;;29.43;15.47;;;-0.20;1.00;;;;;;4968770;28;20457;-56
2022/11/19 21:25:19;;;;;;;26.30;15.53;;;-0.20;1.00;;;;;;4970776;28;20759;-54
2022/11/19 21:27:44;;;;;;;28.03;15.67;;;-0.20;1.00;;;;;;4970679;28;20443;-54
2022/11/19 21:30:10;;;;;;;23.47;14.63;;;-0.20;1.00;;;;;;4970900;28;20239;-51
2022/11/19 21:32:37;;;;;;;21.73;15.00;;;;;;;;;;4970468;28;20232;-55
2022/11/19 21:35:03;;;;;;;24.17;15.03;;;-0.20;1.00;;;;;;4970673;28;20482;-51
2022/11/19 21:37:29;;;;;;;23.97;15.20;;;-0.30;1.00;;;;;;4970659;28;20447;-54
2022/11/19 21:39:54;;;;;;;29.10;17.10;;;-0.30;1.00;;;;;;4968248;28;20451;-53
2022/11/19 21:42:20;;;;;;;21.20;15.90;;;;;;;;;;4970221;28;20190;-54
2022/11/19 21:44:46;;;;;;;27.10;14.83;;;-0.30;1.00;;;;;;4969476;28;20197;-52
2022/11/19 21:47:11;;;;;;;24.07;16.67;;;-0.30;1.00;;;;;;4970745;28;20527;-52
2022/11/19 21:49:37;;;;;;;26.60;14.87;;;-0.40;1.00;;;;;;4970324;28;20197;-56
2022/11/19 21:52:03;;;;;;;23.33;15.03;;;-0.40;1.00;;;;;;4970135;28;20639;-54
2022/11/19 21:54:29;;;;;;;21.80;14.53;;;;;;;;;;4969563;28;20232;-54
2022/11/19 21:56:55;;;;;;;27.67;17.37;;;-0.40;1.00;;;;;;4969419;28;20199;-52
2022/11/19 21:59:21;;;;;;;25.83;16.33;;;;;;;;;;4969669;28;20492;-54
2022/11/19 22:01:47;;;;;;;26.70;16.60;;;;;;;;;;4967976;28;20635;-54
2022/11/19 22:04:14;;;;;;;24.40;15.83;;;;;;;;;;4964450;28;20468;-54
2022/11/19 22:06:40;;;;;;;24.53;14.27;;;-0.40;1.00;;;;;;4965674;28;20890;-51
2022/11/19 22:09:07;;;;;;;28.63;16.23;;;-0.40;1.00;;;;;;4968525;28;21017;-53
2022/11/19 22:11:33;;;;;;;25.60;15.83;;;-0.40;1.00;;;;;;4968996;28;20445;-54
2022/11/19 22:14:01;;;;;;;26.90;16.37;;;-0.30;1.00;;;;;;4965810;28;20560;-54
2022/11/19 22:16:27;;;;;;;25.07;15.80;;;-0.40;1.00;;;;;;4964795;28;22656;-52
2022/11/19 22:18:53;;;;;;;23.77;14.90;;;-0.40;1.00;;;;;;4967673;28;20547;-55
2022/11/19 22:21:18;;;;;;;27.13;15.70;;;-0.40;1.00;;;;;;4966837;28;21018;-53
2022/11/19 22:23:45;;;;;;;23.10;14.73;;;;;;;;;;4966234;28;20200;-55
2022/11/19 22:26:11;;;;;;;26.47;14.60;;;-0.40;1.00;;;;;;4968184;28;20197;-54
2022/11/19 22:28:37;;;;;;;23.30;15.60;;;-0.50;1.00;;;;;;4964564;28;20456;-54
2022/11/19 22:31:03;;;;;;;28.47;15.23;;;-0.50;1.00;;;;;;4969469;28;20481;-54
2022/11/19 22:33:34;;;;;;;24.73;15.63;;;-0.60;1.00;;;;;;4968633;28;20563;-55
2022/11/19 22:36:02;;;;;;;26.87;18.43;;;-0.60;1.00;;;;;;4965102;28;20487;-54
2022/11/19 22:38:28;;;;;;;24.13;15.13;;;-0.60;1.00;;;;;;4965931;28;21029;-52
2022/11/19 22:41:02;;;;;;;19.63;13.63;;;-0.60;1.00;;;;;;4969257;28;20444;-56
2022/11/19 22:43:32;;;;;;;26.10;15.23;;;-0.60;1.00;;;;;;4964906;28;20205;-54
2022/11/19 22:45:58;;;;;;;23.33;16.00;;;-0.60;1.00;;;;;;4968879;28;20480;-51
2022/11/19 22:48:30;;;;;;;25.60;16.97;;;-0.70;1.00;;;;;;4967317;28;20568;-54
2022/11/19 22:50:56;;;;;;;26.33;15.37;;;;;;;;;;4968475;28;20511;-52
2022/11/19 22:53:22;;;;;;;21.50;14.60;;;-0.60;1.00;;;;;;4965737;28;20997;-53
2022/11/19 22:55:47;;;;;;;25.77;15.50;;;-0.80;1.00;;;;;;4966061;28;20470;-53
2022/11/19 22:58:13;;;;;;;24.53;14.60;;;;;;;;;;4963795;28;20456;-54
2022/11/19 23:00:44;;;;;;;23.00;14.93;;;-0.80;1.00;;;;;;4967060;28;20201;-55
2022/11/19 23:03:10;;;;;;;29.60;15.80;;;-0.80;1.00;;;;;;4964468;28;20479;-51
2022/11/19 23:05:36;;;;;;;21.63;13.07;;;-0.90;1.00;;;;;;4969588;28;20555;-52
2022/11/19 23:08:03;;;;;;;26.87;14.87;;;;;;;;;;4972911;28;20475;-53
2022/11/19 23:10:28;;;;;;;24.40;14.83;;;-0.80;1.00;;;;;;4968315;28;20198;-54
2022/11/19 23:15:39;;;;;;;23.70;15.23;;;;;;;;;;4970741;28;20211;-55
2022/11/19 23:18:05;;;;;;;28.50;15.40;;;-0.80;1.00;;;;;;4963509;28;20457;-53
2022/11/19 23:20:30;;;;;;;20.50;14.80;;;-0.80;1.00;;;;;;4970123;28;20531;-51
2022/11/19 23:22:56;;;;;;;25.33;15.77;;;;;;;;;;4970531;28;20636;-52
2022/11/19 23:25:22;;;;;;;23.83;15.10;;;-0.80;1.00;;;;;;4960384;28;20198;-52
2022/11/19 23:27:48;;;;;;;25.30;15.93;;;-0.80;1.00;;;;;;4968775;28;20463;-52
2022/11/19 23:30:13;;;;;;;21.17;14.93;;;-0.80;1.00;;;;;;4970668;28;20791;-53
2022/11/19 23:32:39;;;;;;;26.63;16.93;;;-0.90;1.00;;;;;;4970912;28;20225;-54
2022/11/19 23:35:05;;;;;;;30.77;17.97;;;;;;;;;;4971879;28;20275;-53
2022/11/19 23:37:31;;;;;;;29.67;16.50;;;;;;;;;;4961964;28;20535;-53
2022/11/19 23:39:57;;;;;;;27.73;17.10;;;;;;;;;;4966582;28;20448;-52
2022/11/19 23:42:23;;;;;;;27.40;16.80;;;-0.90;1.00;;;;;;4969654;28;20464;-51
2022/11/19 23:44:48;;;;;;;25.80;17.93;;;-0.90;1.00;;;;;;4968071;28;20496;-52
2022/11/19 23:47:14;;;;;;;28.00;18.33;;;-0.90;1.00;;;;;;4961231;28;20814;-53
2022/11/19 23:49:40;;;;;;;25.10;17.07;;;-0.90;1.00;;;;;;4967412;28;20200;-51
2022/11/19 23:52:05;;;;;;;31.60;17.37;;;-0.80;1.00;;;;;;4971597;28;20196;-51
2022/11/19 23:54:32;;;;;;;23.57;15.73;;;-0.90;1.00;;;;;;4965074;28;20210;-55
2022/11/19 23:56:58;;;;;;;24.70;15.90;;;;;;;;;;4970382;28;20221;-53
2022/11/19 23:59:24;;;;;;;26.30;15.57;;;-1.00;1.00;;;;;;4969555;28;22132;-53
